This is the latest recevied weather packets stored in our database for station/object DB0DUS-10. If no packets are shown the sender has not sent any weather packets the latest 10 day(s).
| Time | Temp. | Humidity | Pressure | Rain* | Wind** | Luminosity | Snow |
|---|---|---|---|---|---|---|---|
| 1777915084 | 16.11° C | 89% | 1013 hPa | 0.76 mm | - | - | - |
| 1777914483 | 16.11° C | 88% | 1013.1 hPa | 1.02 mm | - | - | - |
| 1777913584 | 16.67° C | 88% | 1013.3 hPa | 1.02 mm | - | - | - |
| 1777912683 | 16.67° C | 86% | 1013.4 hPa | 1.27 mm | - | - | - |
| 1777912084 | 16.67° C | 85% | 1013.4 hPa | 1.27 mm | - | - | - |
| 1777910883 | 16.67° C | 84% | 1013.4 hPa | 1.02 mm | - | - | - |
| 1777910584 | 16.67° C | 83% | 1013.3 hPa | 1.27 mm | - | - | - |
| 1777909083 | 17.22° C | 80% | 1013.5 hPa | 2.29 mm | - | - | - |
| 1777907584 | 17.22° C | 77% | 1013.3 hPa | 2.54 mm | - | - | - |
| 1777907283 | 17.22° C | 78% | 1013.4 hPa | 2.54 mm | - | - | - |
| 1777906084 | 18.33° C | 72% | 1013.4 hPa | 2.03 mm | - | - | - |
| 1777905483 | 19.44° C | 67% | 1013.4 hPa | 0.51 mm | - | - | - |
| 1777904585 | 20° C | 62% | 1013.3 hPa | 0 mm | - | - | - |
| 1777903683 | 20.56° C | 60% | 1013.2 hPa | 0 mm | - | - | - |
| 1777903084 | 21.11° C | 59% | 1013.1 hPa | 0 mm | - | - | - |
| 1777901884 | 20.56° C | 58% | 1013.2 hPa | 0 mm | - | - | - |
| 1777901584 | 20.56° C | 57% | 1013.2 hPa | 0 mm | - | - | - |
| 1777900084 | 22.22° C | 51% | 1013.3 hPa | 0 mm | - | - | - |
| 1777898584 | 22.22° C | 50% | 1013.4 hPa | 0 mm | - | - | - |
| 1777898284 | 22.78° C | 49% | 1013.3 hPa | 0 mm | - | - | - |
| 1777897084 | 22.78° C | 49% | 1013.4 hPa | 0 mm | - | - | - |
| 1777896484 | 22.22° C | 51% | 1013.5 hPa | 0 mm | - | - | - |
| 1777895585 | 22.22° C | 51% | 1013.4 hPa | 0 mm | - | - | - |
| 1777894684 | 22.22° C | 52% | 1013.5 hPa | 0 mm | - | - | - |
| 1777894085 | 22.22° C | 52% | 1013.5 hPa | 0 mm | - | - | - |
* Rain latest hour (hover to see other rain measurements)
** Current wind speed in m/s (hover to see current wind gust speed)